Terminal Aerodrome Forecast
Issued by NWS

Home | Current Version | Previous Version | Text Only | Print | Product List | Glossary On
Versions: 1 2 3 4 5 6 7 8 9 10 11 12 13 14 15 16 17 18 19 20 21 22 23 24 25 26
131
FTUS43 KIND 270209 AAA
TAFLAF
TAF AMD
KLAF 270209Z 2702/2724 10004KT P6SM SCT035 BKN100
     FM270400 10004KT P6SM BKN100
     FM271300 13006KT P6SM SCT030 BKN100 PROB30 2713/2719 3SM TSRA
      OVC030CB
     FM272000 19007KT P6SM SCT035 BKN100
      AMD LTD TO CLD VIS AND WIND TIL 271300=

USA.gov is the U.S. government's official web portal to all federal, state and local government web resources and services.